createdAt,value
2024-01-24T00:01:11.057Z,962.67
2024-01-24T00:03:37.543Z,962.65
2024-01-24T00:06:03.780Z,962.69
2024-01-24T00:08:30.261Z,962.72
2024-01-24T00:10:56.606Z,962.69
2024-01-24T00:13:23.131Z,962.71
2024-01-24T00:15:49.650Z,962.75
2024-01-24T00:18:16.241Z,962.84
2024-01-24T00:20:42.504Z,962.87
2024-01-24T00:23:08.951Z,962.86
2024-01-24T00:25:35.494Z,962.85
2024-01-24T00:28:01.885Z,962.90
2024-01-24T00:30:28.265Z,962.89
2024-01-24T00:32:54.832Z,962.93
2024-01-24T00:35:21.230Z,962.88
2024-01-24T00:37:47.627Z,962.92
2024-01-24T00:40:14.080Z,962.93
2024-01-24T00:42:40.579Z,962.95
2024-01-24T00:45:06.967Z,962.90
2024-01-24T00:47:33.439Z,962.96
2024-01-24T00:49:59.815Z,962.99
2024-01-24T00:52:26.268Z,962.98
2024-01-24T00:54:52.814Z,962.93
2024-01-24T00:57:19.253Z,962.91
2024-01-24T00:59:45.648Z,963.03
2024-01-24T01:02:12.058Z,963.00
2024-01-24T01:04:38.407Z,962.93
2024-01-24T01:07:04.894Z,962.93
2024-01-24T01:09:31.353Z,962.82
2024-01-24T01:11:57.715Z,962.84
2024-01-24T01:14:24.062Z,962.86
2024-01-24T01:16:50.470Z,962.85
2024-01-24T01:19:16.923Z,962.85
2024-01-24T01:21:43.448Z,962.91
2024-01-24T01:24:09.882Z,962.89
2024-01-24T01:26:36.210Z,962.85
2024-01-24T01:29:02.566Z,962.85
2024-01-24T01:31:29.078Z,962.91
2024-01-24T01:33:55.492Z,962.88
2024-01-24T01:36:23.629Z,962.96
2024-01-24T01:38:48.386Z,962.82
2024-01-24T01:41:14.812Z,962.87
2024-01-24T01:43:41.214Z,962.81
2024-01-24T01:46:07.664Z,962.79
2024-01-24T01:48:34.138Z,962.89
2024-01-24T01:51:00.447Z,962.84
2024-01-24T01:53:26.856Z,962.77
2024-01-24T01:55:53.331Z,962.73
2024-01-24T01:58:19.725Z,962.67
2024-01-24T02:00:46.173Z,962.54
2024-01-24T02:03:12.689Z,962.53
2024-01-24T02:05:39.439Z,962.56
2024-01-24T02:08:05.486Z,962.57
2024-01-24T02:10:32.023Z,962.58
2024-01-24T02:12:58.479Z,962.59
2024-01-24T02:15:24.896Z,962.54
2024-01-24T02:17:51.288Z,962.60
2024-01-24T02:20:17.740Z,962.55
2024-01-24T02:22:44.111Z,962.52
2024-01-24T02:25:10.814Z,962.46
2024-01-24T02:27:37.244Z,962.50
2024-01-24T02:30:03.691Z,962.46
2024-01-24T02:32:30.141Z,962.44
2024-01-24T02:34:56.577Z,962.40
2024-01-24T02:37:23.082Z,962.44
2024-01-24T02:39:49.643Z,962.36
2024-01-24T02:42:15.991Z,962.34
2024-01-24T02:44:42.344Z,962.39
2024-01-24T02:47:08.708Z,962.40
2024-01-24T02:49:35.305Z,962.38
2024-01-24T02:52:01.566Z,962.43
2024-01-24T02:54:28.062Z,962.47
2024-01-24T02:56:54.451Z,962.44
2024-01-24T02:59:20.856Z,962.42
2024-01-24T03:01:47.322Z,962.51
2024-01-24T03:04:13.968Z,962.52
2024-01-24T03:06:40.311Z,962.50
2024-01-24T03:09:06.711Z,962.47
2024-01-24T03:11:33.144Z,962.47
2024-01-24T03:13:59.690Z,962.52
2024-01-24T03:16:26.039Z,962.44
2024-01-24T03:18:52.871Z,962.38
2024-01-24T03:21:19.222Z,962.35
2024-01-24T03:23:45.489Z,962.38
2024-01-24T03:26:11.961Z,962.32
2024-01-24T03:28:38.396Z,962.31
2024-01-24T03:31:04.752Z,962.29
2024-01-24T03:33:31.348Z,962.35
2024-01-24T03:35:57.602Z,962.42
2024-01-24T03:38:24.084Z,962.36
2024-01-24T03:40:50.399Z,962.35
2024-01-24T03:43:16.902Z,962.43
2024-01-24T03:45:43.386Z,962.43
2024-01-24T03:48:09.800Z,962.39
2024-01-24T03:50:36.104Z,962.32
2024-01-24T03:53:02.504Z,962.41
2024-01-24T03:55:28.895Z,962.36
2024-01-24T03:57:55.418Z,962.34
2024-01-24T04:00:21.815Z,962.33
2024-01-24T04:02:48.239Z,962.37
2024-01-24T04:05:14.689Z,962.36
2024-01-24T04:07:41.103Z,962.37
2024-01-24T04:10:07.540Z,962.43
2024-01-24T04:12:34.111Z,962.58
2024-01-24T04:15:00.585Z,962.58
2024-01-24T04:17:27.090Z,962.56
2024-01-24T04:19:53.434Z,962.59
2024-01-24T04:22:19.843Z,962.62
2024-01-24T04:24:46.288Z,962.59
2024-01-24T04:27:12.904Z,962.70
2024-01-24T04:29:39.280Z,962.61
2024-01-24T04:32:05.740Z,962.65
2024-01-24T04:34:32.339Z,962.73
2024-01-24T04:36:58.634Z,962.74
2024-01-24T04:39:24.994Z,962.76
2024-01-24T04:41:56.242Z,962.85
2024-01-24T04:44:17.840Z,962.73
2024-01-24T04:46:44.361Z,962.72
2024-01-24T04:49:22.952Z,962.79
2024-01-24T04:51:37.263Z,962.80
2024-01-24T04:54:03.646Z,962.82
2024-01-24T04:56:30.074Z,962.89
2024-01-24T04:58:56.429Z,962.83
2024-01-24T05:01:23.071Z,962.86
2024-01-24T05:03:49.489Z,962.92
2024-01-24T05:06:15.901Z,963.01
2024-01-24T05:08:42.355Z,963.05
2024-01-24T05:11:08.805Z,963.05
2024-01-24T05:13:35.138Z,963.10
2024-01-24T05:16:01.657Z,963.05
2024-01-24T05:18:28.132Z,963.03
2024-01-24T05:20:54.431Z,963.11
2024-01-24T05:23:20.799Z,963.17
2024-01-24T05:25:47.264Z,963.20
2024-01-24T05:28:13.645Z,963.19
2024-01-24T05:30:40.330Z,963.23
2024-01-24T05:33:06.612Z,963.18
2024-01-24T05:35:33.017Z,963.16
2024-01-24T05:37:59.360Z,963.17
2024-01-24T05:40:25.819Z,963.08
2024-01-24T05:42:53.596Z,963.05
2024-01-24T05:45:18.696Z,963.19
2024-01-24T05:47:45.121Z,963.14
2024-01-24T05:50:11.503Z,963.16
2024-01-24T05:52:39.693Z,963.18
2024-01-24T05:55:04.403Z,963.19
2024-01-24T05:57:30.714Z,963.13
2024-01-24T05:59:57.281Z,963.03
2024-01-24T06:02:23.629Z,963.08
2024-01-24T06:04:50.377Z,963.14
2024-01-24T06:07:16.864Z,963.04
2024-01-24T06:09:43.251Z,963.12
2024-01-24T06:12:09.538Z,963.13
2024-01-24T06:14:35.980Z,963.00
2024-01-24T06:17:02.387Z,963.11
2024-01-24T06:19:28.851Z,963.07
2024-01-24T06:21:55.290Z,963.01
2024-01-24T06:24:23.282Z,963.06
2024-01-24T06:26:48.020Z,963.04
2024-01-24T06:29:14.429Z,962.98
2024-01-24T06:31:40.845Z,963.00
2024-01-24T06:34:07.436Z,963.02
2024-01-24T06:36:33.664Z,963.12
2024-01-24T06:39:00.182Z,963.07
2024-01-24T06:41:26.532Z,963.06
2024-01-24T06:43:52.933Z,963.01
2024-01-24T06:46:19.372Z,963.03
2024-01-24T06:48:46.027Z,963.01
2024-01-24T06:51:12.276Z,963.04
2024-01-24T06:53:38.800Z,963.09
2024-01-24T06:56:05.199Z,963.05
2024-01-24T06:58:31.724Z,962.97
2024-01-24T07:00:58.216Z,962.97
2024-01-24T07:03:24.698Z,962.98
2024-01-24T07:05:50.973Z,962.96
2024-01-24T07:08:17.396Z,962.93
2024-01-24T07:10:43.836Z,962.84
2024-01-24T07:13:10.286Z,962.95
2024-01-24T07:15:36.682Z,962.96
2024-01-24T07:18:03.210Z,962.99
2024-01-24T07:20:29.463Z,962.95
2024-01-24T07:22:55.909Z,963.02
2024-01-24T07:25:22.341Z,963.10
2024-01-24T07:27:48.860Z,963.15
2024-01-24T07:30:15.155Z,963.17
2024-01-24T07:32:41.624Z,963.23
2024-01-24T07:35:08.080Z,963.21
2024-01-24T07:37:34.476Z,963.31
2024-01-24T07:40:01.067Z,963.30
2024-01-24T07:42:27.341Z,963.37
2024-01-24T07:44:53.682Z,963.43
2024-01-24T07:47:20.230Z,963.40
2024-01-24T07:49:46.675Z,963.42
2024-01-24T07:52:13.291Z,963.44
2024-01-24T07:54:39.536Z,963.50
2024-01-24T07:57:05.950Z,963.41
2024-01-24T07:59:32.342Z,963.45
2024-01-24T08:01:58.941Z,963.46
2024-01-24T08:04:25.448Z,963.40
2024-01-24T08:06:52.021Z,963.42
2024-01-24T08:09:18.358Z,963.36
2024-01-24T08:11:44.767Z,963.46
2024-01-24T08:14:11.114Z,963.52
2024-01-24T08:16:37.619Z,963.57
2024-01-24T08:19:04.150Z,963.55
2024-01-24T08:21:30.501Z,963.47
2024-01-24T08:23:56.850Z,963.50
2024-01-24T08:26:23.346Z,963.56
2024-01-24T08:28:49.728Z,963.54
2024-01-24T08:31:16.202Z,963.58
2024-01-24T08:33:42.822Z,963.59
2024-01-24T08:36:09.065Z,963.49
2024-01-24T08:38:35.466Z,963.47
2024-01-24T08:41:01.951Z,963.49
2024-01-24T08:43:28.325Z,963.43
2024-01-24T08:45:54.884Z,963.44
2024-01-24T08:48:21.254Z,963.45
2024-01-24T08:50:47.692Z,963.38
2024-01-24T08:53:14.099Z,963.31
2024-01-24T08:55:40.516Z,963.27
2024-01-24T08:58:07.037Z,963.27
2024-01-24T09:00:33.431Z,963.28
2024-01-24T09:02:59.840Z,963.42
2024-01-24T09:05:26.852Z,963.36
2024-01-24T09:07:53.184Z,963.35
2024-01-24T09:10:19.641Z,963.46
2024-01-24T09:12:46.039Z,963.53
2024-01-24T09:15:12.393Z,963.48
2024-01-24T09:17:38.902Z,963.46
2024-01-24T09:20:05.371Z,963.34
2024-01-24T09:22:31.673Z,963.29
2024-01-24T09:24:58.216Z,963.34
2024-01-24T09:27:24.520Z,963.26
2024-01-24T09:29:50.883Z,963.26
2024-01-24T09:32:17.324Z,963.21
2024-01-24T09:34:44.090Z,963.29
2024-01-24T09:37:10.177Z,963.26
2024-01-24T09:39:36.658Z,963.14
2024-01-24T09:42:03.046Z,963.16
2024-01-24T09:44:29.497Z,963.07
2024-01-24T09:46:55.853Z,962.97
2024-01-24T09:49:22.410Z,962.95
2024-01-24T09:51:48.661Z,962.95
2024-01-24T09:54:15.175Z,962.87
2024-01-24T09:56:41.614Z,962.82
2024-01-24T09:59:07.912Z,962.98
2024-01-24T10:01:34.477Z,962.87
2024-01-24T10:04:00.929Z,962.93
2024-01-24T10:06:27.449Z,962.89
2024-01-24T10:08:54.022Z,962.73
2024-01-24T10:11:20.568Z,962.70
2024-01-24T10:13:46.925Z,962.73
2024-01-24T10:16:13.484Z,962.80
2024-01-24T10:18:39.805Z,962.69
2024-01-24T10:21:06.777Z,962.64
2024-01-24T10:23:32.930Z,962.61
2024-01-24T10:25:59.351Z,962.56
2024-01-24T10:28:25.859Z,962.59
2024-01-24T10:30:52.690Z,962.49
2024-01-24T10:33:19.658Z,962.49
2024-01-24T10:35:45.513Z,962.47
2024-01-24T10:38:11.967Z,962.32
2024-01-24T10:40:38.490Z,962.40
2024-01-24T10:43:04.992Z,962.33
2024-01-24T10:45:31.363Z,962.38
2024-01-24T10:47:57.775Z,962.31
2024-01-24T10:50:24.419Z,962.25
2024-01-24T10:52:53.182Z,962.19
2024-01-24T10:55:17.307Z,962.20
2024-01-24T10:57:44.231Z,962.15
2024-01-24T11:00:10.251Z,962.12
2024-01-24T11:02:36.645Z,962.11
2024-01-24T11:05:03.087Z,962.04
2024-01-24T11:07:29.406Z,961.93
2024-01-24T11:09:55.985Z,961.91
2024-01-24T11:12:22.324Z,961.90
2024-01-24T11:14:48.739Z,961.91
2024-01-24T11:17:15.177Z,961.93
2024-01-24T11:19:41.860Z,961.93
2024-01-24T11:22:13.608Z,961.78
2024-01-24T11:24:34.608Z,961.90
2024-01-24T11:27:01.119Z,961.86
2024-01-24T11:29:27.660Z,961.74
2024-01-24T11:31:54.104Z,961.68
2024-01-24T11:34:20.706Z,961.64
2024-01-24T11:36:46.897Z,961.65
2024-01-24T11:39:13.394Z,961.70
2024-01-24T11:41:39.837Z,961.69
2024-01-24T11:44:06.257Z,961.63
2024-01-24T11:46:32.691Z,961.63
2024-01-24T11:48:59.282Z,961.54
2024-01-24T11:51:25.685Z,961.56
2024-01-24T11:53:52.079Z,961.46
2024-01-24T11:56:18.563Z,961.39
2024-01-24T11:58:44.985Z,961.31
2024-01-24T12:01:11.521Z,961.14
2024-01-24T12:03:37.831Z,961.20
2024-01-24T12:06:04.268Z,961.27
2024-01-24T12:08:30.685Z,961.22
2024-01-24T12:10:58.157Z,961.21
2024-01-24T12:13:24.732Z,961.17
2024-01-24T12:15:51.229Z,961.14
2024-01-24T12:18:17.938Z,961.07
2024-01-24T12:20:46.361Z,961.05
2024-01-24T12:23:12.885Z,961.00
2024-01-24T12:25:41.729Z,960.88
2024-01-24T12:28:08.226Z,960.91
2024-01-24T12:30:34.844Z,960.80
2024-01-24T12:33:01.210Z,960.72
2024-01-24T12:35:27.686Z,960.61
2024-01-24T12:37:54.085Z,960.59
2024-01-24T12:40:20.619Z,960.54
2024-01-24T12:42:47.130Z,960.60
2024-01-24T12:45:13.693Z,960.64
2024-01-24T12:47:40.135Z,960.54
2024-01-24T12:50:06.607Z,960.61
2024-01-24T12:52:32.881Z,960.48
2024-01-24T12:54:59.381Z,960.42
2024-01-24T12:57:25.715Z,960.43
2024-01-24T12:59:52.044Z,960.47
2024-01-24T13:02:18.581Z,960.50
2024-01-24T13:04:45.185Z,960.60
2024-01-24T13:07:11.574Z,960.62
2024-01-24T13:09:42.842Z,960.58
2024-01-24T13:12:04.467Z,960.54
2024-01-24T13:14:30.917Z,960.62
2024-01-24T13:16:57.333Z,960.61
2024-01-24T13:19:23.870Z,960.62
2024-01-24T13:21:50.272Z,960.58
2024-01-24T13:24:16.597Z,960.59
2024-01-24T13:26:43.626Z,960.55
2024-01-24T13:29:09.463Z,960.52
2024-01-24T13:31:36.067Z,960.48
2024-01-24T13:34:02.482Z,960.40
2024-01-24T13:36:28.989Z,960.36
2024-01-24T13:38:55.361Z,960.37
2024-01-24T13:41:21.887Z,960.32
2024-01-24T13:43:48.168Z,960.34
2024-01-24T13:46:14.769Z,960.31
2024-01-24T13:48:41.146Z,960.35
2024-01-24T13:51:07.544Z,960.34
2024-01-24T13:53:33.890Z,960.44
2024-01-24T13:56:00.403Z,960.36
2024-01-24T13:58:27.011Z,960.36
2024-01-24T14:00:53.352Z,960.34
2024-01-24T14:03:19.716Z,960.27
2024-01-24T14:05:46.152Z,960.21
2024-01-24T14:08:12.553Z,960.15
2024-01-24T14:10:41.045Z,960.12
2024-01-24T14:13:07.538Z,960.05
2024-01-24T14:15:36.568Z,959.95
2024-01-24T14:18:00.408Z,959.87
2024-01-24T14:20:26.765Z,959.94
2024-01-24T14:22:53.131Z,959.96
2024-01-24T14:25:19.525Z,960.02
2024-01-24T14:27:45.957Z,960.04
2024-01-24T14:30:12.404Z,960.04
2024-01-24T14:32:38.798Z,960.04
2024-01-24T14:35:05.280Z,960.02
2024-01-24T14:37:33.373Z,960.05
2024-01-24T14:39:58.066Z,959.98
2024-01-24T14:42:24.476Z,959.94
2024-01-24T14:44:51.038Z,959.94
2024-01-24T14:47:17.370Z,960.01
2024-01-24T14:49:43.958Z,959.98
2024-01-24T14:52:10.346Z,959.95
2024-01-24T14:54:36.767Z,959.86
2024-01-24T14:57:03.343Z,959.84
2024-01-24T14:59:29.811Z,959.76
2024-01-24T15:01:56.263Z,959.66
2024-01-24T15:04:22.875Z,959.61
2024-01-24T15:06:49.233Z,959.61
2024-01-24T15:09:15.632Z,959.54
2024-01-24T15:11:41.988Z,959.62
2024-01-24T15:14:08.540Z,959.56
2024-01-24T15:16:34.970Z,959.53
2024-01-24T15:19:01.482Z,959.52
2024-01-24T15:21:31.860Z,959.43
2024-01-24T15:23:54.239Z,959.32
2024-01-24T15:26:20.597Z,959.37
2024-01-24T15:28:47.114Z,959.33
2024-01-24T15:31:13.582Z,959.30
2024-01-24T15:33:40.060Z,959.16
2024-01-24T15:36:06.412Z,959.14
2024-01-24T15:38:32.954Z,959.06
2024-01-24T15:40:59.292Z,958.99
2024-01-24T15:43:27.073Z,959.00
2024-01-24T15:45:53.488Z,959.06
2024-01-24T15:48:19.968Z,959.13
2024-01-24T15:50:46.708Z,959.24
2024-01-24T15:53:13.163Z,959.35
2024-01-24T15:55:39.528Z,959.42
2024-01-24T15:58:06.136Z,959.48
2024-01-24T16:00:32.481Z,959.47
2024-01-24T16:02:59.059Z,959.47
2024-01-24T16:05:25.450Z,959.44
2024-01-24T16:07:51.911Z,959.47
2024-01-24T16:10:20.626Z,959.32
2024-01-24T16:12:47.136Z,959.10
2024-01-24T16:15:13.447Z,959.21
2024-01-24T16:17:40.012Z,959.19
2024-01-24T16:20:06.481Z,959.18
2024-01-24T16:22:36.434Z,959.14
2024-01-24T16:24:59.348Z,959.12
2024-01-24T16:27:25.878Z,959.21
2024-01-24T16:29:52.676Z,959.21
2024-01-24T16:32:19.228Z,959.17
2024-01-24T16:34:46.516Z,959.20
2024-01-24T16:37:12.865Z,959.23
2024-01-24T16:39:39.287Z,959.26
2024-01-24T16:42:05.740Z,959.36
2024-01-24T16:44:32.143Z,959.35
2024-01-24T16:46:58.724Z,959.52
2024-01-24T16:49:25.198Z,959.56
2024-01-24T16:51:51.579Z,959.48
2024-01-24T16:54:17.948Z,959.47
2024-01-24T16:56:44.422Z,959.61
2024-01-24T16:59:10.783Z,959.57
2024-01-24T17:01:37.501Z,959.50
2024-01-24T17:04:03.749Z,959.47
2024-01-24T17:06:30.145Z,959.40
2024-01-24T17:08:56.593Z,959.26
2024-01-24T17:11:23.036Z,959.17
2024-01-24T17:13:49.380Z,959.07
2024-01-24T17:16:15.815Z,959.09
2024-01-24T17:18:42.286Z,958.94
2024-01-24T17:21:08.683Z,958.94
2024-01-24T17:23:35.198Z,959.06
2024-01-24T17:26:01.637Z,959.16
2024-01-24T17:28:27.980Z,959.17
2024-01-24T17:30:54.779Z,959.17
2024-01-24T17:33:21.318Z,959.31
2024-01-24T17:35:47.681Z,959.36
2024-01-24T17:38:14.040Z,959.23
2024-01-24T17:40:40.539Z,959.23
2024-01-24T17:43:07.341Z,959.01
2024-01-24T17:45:33.755Z,958.88
2024-01-24T17:48:00.187Z,958.77
2024-01-24T17:50:26.575Z,958.84
2024-01-24T17:52:52.924Z,958.93
2024-01-24T17:55:19.456Z,958.95
2024-01-24T17:57:45.841Z,958.92
2024-01-24T18:00:12.315Z,958.84
2024-01-24T18:02:38.649Z,958.69
2024-01-24T18:05:05.138Z,958.71
2024-01-24T18:07:31.829Z,958.75
2024-01-24T18:09:58.091Z,958.67
2024-01-24T18:12:24.480Z,958.61
2024-01-24T18:14:50.913Z,958.61
2024-01-24T18:17:17.331Z,958.52
2024-01-24T18:19:43.930Z,958.53
2024-01-24T18:22:10.215Z,958.50
2024-01-24T18:24:36.652Z,958.46
2024-01-24T18:27:03.015Z,958.46
2024-01-24T18:29:29.403Z,958.54
2024-01-24T18:31:55.743Z,958.45
2024-01-24T18:34:22.230Z,958.50
2024-01-24T18:36:48.512Z,958.49
2024-01-24T18:39:14.919Z,958.46
2024-01-24T18:41:41.353Z,958.48
2024-01-24T18:44:07.806Z,958.47
2024-01-24T18:46:34.217Z,958.42
2024-01-24T18:49:04.321Z,958.48
2024-01-24T18:51:27.181Z,958.53
2024-01-24T18:53:53.617Z,958.37
2024-01-24T18:56:20.068Z,958.28
2024-01-24T18:58:46.887Z,958.36
2024-01-24T19:01:13.340Z,958.44
2024-01-24T19:03:39.864Z,958.44
2024-01-24T19:06:06.228Z,958.47
2024-01-24T19:08:32.633Z,958.44
2024-01-24T19:10:59.035Z,958.37
2024-01-24T19:13:25.600Z,958.49
2024-01-24T19:15:51.972Z,958.60
2024-01-24T19:18:24.838Z,958.58
2024-01-24T19:20:48.034Z,958.49
2024-01-24T19:23:14.518Z,958.54
2024-01-24T19:25:40.948Z,958.50
2024-01-24T19:28:07.485Z,958.44
2024-01-24T19:30:33.754Z,958.60
2024-01-24T19:33:00.317Z,958.50
2024-01-24T19:35:26.709Z,958.45
2024-01-24T19:37:53.137Z,958.37
2024-01-24T19:40:19.545Z,958.19
2024-01-24T19:42:45.980Z,958.22
2024-01-24T19:45:12.317Z,958.20
2024-01-24T19:47:38.733Z,958.21
2024-01-24T19:50:06.005Z,958.21
2024-01-24T19:52:32.525Z,958.04
2024-01-24T19:54:58.919Z,957.88
2024-01-24T19:57:25.417Z,957.79
2024-01-24T19:59:51.828Z,957.93
2024-01-24T20:02:18.305Z,958.16
2024-01-24T20:04:44.677Z,958.14
2024-01-24T20:07:11.250Z,958.13
2024-01-24T20:09:37.657Z,958.05
2024-01-24T20:12:04.117Z,958.01
2024-01-24T20:14:30.531Z,958.04
2024-01-24T20:16:56.983Z,958.00
2024-01-24T20:19:25.621Z,958.01
2024-01-24T20:21:52.141Z,958.04
2024-01-24T20:24:18.511Z,957.99
2024-01-24T20:26:44.916Z,958.04
2024-01-24T20:29:11.394Z,958.06
2024-01-24T20:31:37.751Z,958.05
2024-01-24T20:34:04.262Z,958.07
2024-01-24T20:36:30.602Z,957.97
2024-01-24T20:38:57.053Z,957.98
2024-01-24T20:41:24.872Z,958.00
2024-01-24T20:43:49.887Z,957.96
2024-01-24T20:46:16.457Z,957.91
2024-01-24T20:48:43.039Z,957.78
2024-01-24T20:51:09.219Z,957.90
2024-01-24T20:53:35.731Z,957.74
2024-01-24T20:56:02.088Z,957.78
2024-01-24T20:58:28.531Z,957.57
2024-01-24T21:00:55.185Z,957.53
2024-01-24T21:03:21.340Z,957.59
2024-01-24T21:05:47.718Z,957.67
2024-01-24T21:08:14.189Z,957.71
2024-01-24T21:10:45.611Z,957.57
2024-01-24T21:13:07.137Z,957.67
2024-01-24T21:15:33.493Z,957.61
2024-01-24T21:18:00.024Z,957.56
2024-01-24T21:20:26.499Z,957.47
2024-01-24T21:22:53.355Z,957.30
2024-01-24T21:25:19.709Z,957.14
2024-01-24T21:27:46.096Z,956.90
2024-01-24T21:30:12.481Z,957.10
2024-01-24T21:32:39.084Z,957.05
2024-01-24T21:35:05.485Z,957.09
2024-01-24T21:37:32.128Z,957.17
2024-01-24T21:39:58.438Z,957.30
2024-01-24T21:42:24.886Z,957.24
2024-01-24T21:44:51.235Z,957.34
2024-01-24T21:47:17.752Z,957.35
2024-01-24T21:49:44.390Z,957.38
2024-01-24T21:52:10.642Z,957.36
2024-01-24T21:54:36.986Z,957.15
2024-01-24T21:57:03.390Z,957.07
2024-01-24T21:59:29.808Z,957.04
2024-01-24T22:01:56.217Z,957.16
2024-01-24T22:04:22.646Z,957.32
2024-01-24T22:06:49.037Z,957.59
2024-01-24T22:09:15.441Z,957.51
2024-01-24T22:11:41.890Z,957.36
2024-01-24T22:14:08.238Z,957.16
2024-01-24T22:16:34.730Z,957.18
2024-01-24T22:19:01.205Z,957.10
2024-01-24T22:21:27.592Z,957.10
2024-01-24T22:23:53.954Z,957.02
2024-01-24T22:26:20.475Z,957.05
2024-01-24T22:28:46.822Z,957.04
2024-01-24T22:31:13.387Z,957.01
2024-01-24T22:33:39.816Z,956.98
2024-01-24T22:36:06.205Z,956.95
2024-01-24T22:38:32.580Z,957.09
2024-01-24T22:40:59.091Z,957.18
2024-01-24T22:43:25.475Z,957.28
2024-01-24T22:45:51.936Z,957.30
2024-01-24T22:48:18.380Z,957.24
2024-01-24T22:50:44.722Z,957.20
2024-01-24T22:53:11.061Z,957.11
2024-01-24T22:55:37.556Z,957.06
2024-01-24T22:58:04.085Z,957.02
2024-01-24T23:00:30.463Z,957.14
2024-01-24T23:02:56.784Z,957.26
2024-01-24T23:05:23.289Z,957.27
2024-01-24T23:07:49.604Z,957.24
2024-01-24T23:10:16.131Z,957.38
2024-01-24T23:12:42.519Z,957.33
2024-01-24T23:15:08.854Z,957.39
2024-01-24T23:17:35.377Z,957.34
2024-01-24T23:20:01.832Z,957.31
2024-01-24T23:22:28.099Z,957.36
2024-01-24T23:24:54.671Z,957.35
2024-01-24T23:27:20.953Z,957.11
2024-01-24T23:29:47.381Z,957.13
2024-01-24T23:32:13.875Z,957.03
2024-01-24T23:34:40.407Z,957.06
2024-01-24T23:37:06.838Z,957.04
2024-01-24T23:39:33.112Z,957.04
2024-01-24T23:41:59.458Z,957.09
2024-01-24T23:44:25.893Z,957.06
2024-01-24T23:46:52.235Z,957.07
2024-01-24T23:49:18.872Z,957.15
2024-01-24T23:51:45.256Z,957.24
2024-01-24T23:54:11.549Z,957.36
2024-01-24T23:56:37.903Z,957.48
2024-01-24T23:59:04.432Z,957.47
